createdAt,value
2022-08-05T00:01:27.630Z,20.30
2022-08-05T00:03:57.123Z,20.40
2022-08-05T00:06:30.732Z,20.30
2022-08-05T00:09:00.692Z,20.10
2022-08-05T00:11:34.562Z,20.00
2022-08-05T00:14:02.438Z,20.00
2022-08-05T00:16:52.433Z,20.00
2022-08-05T00:19:24.749Z,20.00
2022-08-05T00:22:00.190Z,20.00
2022-08-05T00:24:30.729Z,20.10
2022-08-05T00:26:59.429Z,20.20
2022-08-05T00:29:27.643Z,20.20
2022-08-05T00:32:13.385Z,20.20
2022-08-05T00:35:04.557Z,20.20
2022-08-05T00:37:50.793Z,20.10
2022-08-05T00:40:17.647Z,20.10
2022-08-05T00:42:53.305Z,20.10
2022-08-05T00:45:28.107Z,20.00
2022-08-05T00:48:09.308Z,19.90
2022-08-05T00:50:36.303Z,19.90
2022-08-05T00:53:03.434Z,19.80
2022-08-05T00:55:50.513Z,19.80
2022-08-05T00:58:19.136Z,19.80
2022-08-05T01:00:46.765Z,19.90
2022-08-05T01:03:23.129Z,19.80
2022-08-05T01:05:54.660Z,19.70
2022-08-05T01:08:42.277Z,19.60
2022-08-05T01:11:22.621Z,19.60
2022-08-05T01:14:01.285Z,19.60
2022-08-05T01:16:38.635Z,19.50
2022-08-05T01:19:36.683Z,19.50
2022-08-05T01:22:28.975Z,19.60
2022-08-05T01:24:58.549Z,19.60
2022-08-05T01:27:50.856Z,19.70
2022-08-05T01:30:34.262Z,19.60
2022-08-05T01:33:04.818Z,19.60
2022-08-05T01:35:52.238Z,19.50
2022-08-05T01:38:27.147Z,19.50
2022-08-05T01:41:00.029Z,19.50
2022-08-05T01:43:28.756Z,19.50
2022-08-05T01:45:57.069Z,19.50
2022-08-05T01:48:28.567Z,19.50
2022-08-05T01:50:56.503Z,19.50
2022-08-05T01:53:56.915Z,19.60
2022-08-05T01:56:12.691Z,19.60
2022-08-05T01:58:45.047Z,19.70
2022-08-05T02:01:24.558Z,19.70
2022-08-05T02:03:53.210Z,19.80
2022-08-05T02:06:33.683Z,19.80
2022-08-05T02:09:05.813Z,19.80
2022-08-05T02:11:41.990Z,19.90
2022-08-05T02:14:12.636Z,19.90
2022-08-05T02:16:44.684Z,19.90
2022-08-05T02:19:36.056Z,19.90
2022-08-05T02:22:25.339Z,19.80
2022-08-05T02:24:56.330Z,19.80
2022-08-05T02:27:30.095Z,19.70
2022-08-05T02:30:14.208Z,19.60
2022-08-05T02:32:46.104Z,19.50
2022-08-05T02:35:19.086Z,19.40
2022-08-05T02:37:56.653Z,19.40
2022-08-05T02:40:27.683Z,19.40
2022-08-05T02:42:55.603Z,19.40
2022-08-05T02:45:25.443Z,19.40
2022-08-05T02:48:07.495Z,19.50
2022-08-05T02:50:43.926Z,19.40
2022-08-05T02:53:12.026Z,19.50
2022-08-05T02:55:54.244Z,19.40
2022-08-05T02:58:27.338Z,19.20
2022-08-05T03:00:56.675Z,19.00
2022-08-05T03:03:23.881Z,19.00
2022-08-05T03:06:57.160Z,19.00
2022-08-05T03:11:56.273Z,18.90
2022-08-05T03:14:04.107Z,18.70
2022-08-05T03:16:31.653Z,18.60
2022-08-05T03:18:59.335Z,18.60
2022-08-05T03:21:28.713Z,18.70
2022-08-05T03:23:56.007Z,18.90
2022-08-05T03:26:31.931Z,18.80
2022-08-05T03:28:59.621Z,18.90
2022-08-05T03:31:56.680Z,18.90
2022-08-05T03:34:13.235Z,18.90
2022-08-05T03:36:41.256Z,18.90
2022-08-05T03:39:08.341Z,19.00
2022-08-05T03:41:45.472Z,19.00
2022-08-05T03:44:19.947Z,19.10
2022-08-05T03:46:46.958Z,19.10
2022-08-05T03:49:15.491Z,19.10
2022-08-05T03:52:50.200Z,19.20
2022-08-05T03:55:54.775Z,19.20
2022-08-05T03:57:44.921Z,19.20
2022-08-05T04:00:16.010Z,19.20
2022-08-05T04:02:52.317Z,19.40
2022-08-05T04:05:34.674Z,19.30
2022-08-05T04:08:02.539Z,19.20
2022-08-05T04:10:37.134Z,19.20
2022-08-05T04:13:05.451Z,19.20
2022-08-05T04:15:33.245Z,19.10
2022-08-05T04:18:04.059Z,19.00
2022-08-05T04:20:34.521Z,19.00
2022-08-05T04:23:01.672Z,19.00
2022-08-05T04:25:57.779Z,18.90
2022-08-05T04:28:15.247Z,18.90
2022-08-05T04:30:44.203Z,18.80
2022-08-05T04:33:11.007Z,18.70
2022-08-05T04:36:15.614Z,18.70
2022-08-05T04:38:39.440Z,18.80
2022-08-05T04:41:07.521Z,18.80
2022-08-05T04:43:37.083Z,18.80
2022-08-05T04:46:05.061Z,18.90
2022-08-05T04:48:32.049Z,19.00
2022-08-05T04:51:02.811Z,18.90
2022-08-05T04:53:38.703Z,18.90
2022-08-05T04:56:33.245Z,18.90
2022-08-05T04:58:56.489Z,18.90
2022-08-05T05:01:33.598Z,18.90
2022-08-05T05:04:00.825Z,18.80
2022-08-05T05:06:36.067Z,18.90
2022-08-05T05:09:14.310Z,19.00
2022-08-05T05:11:53.972Z,19.00
2022-08-05T05:14:27.953Z,19.00
2022-08-05T05:16:59.167Z,19.00
2022-08-05T05:19:26.619Z,19.00
2022-08-05T05:22:22.978Z,19.00
2022-08-05T05:24:57.409Z,18.90
2022-08-05T05:27:41.478Z,19.00
2022-08-05T05:30:29.292Z,18.90
2022-08-05T05:33:00.815Z,18.80
2022-08-05T05:35:34.488Z,18.80
2022-08-05T05:38:09.236Z,18.70
2022-08-05T05:40:45.065Z,18.70
2022-08-05T05:43:22.112Z,18.60
2022-08-05T05:46:03.788Z,18.50
2022-08-05T05:51:00.039Z,18.40
2022-08-05T05:53:54.047Z,18.40
2022-08-05T05:56:31.778Z,18.40
2022-08-05T05:59:03.436Z,18.30
2022-08-05T06:01:37.783Z,18.30
2022-08-05T06:04:12.039Z,18.30
2022-08-05T06:06:47.522Z,18.30
2022-08-05T06:09:16.615Z,18.20
2022-08-05T06:12:01.204Z,18.30
2022-08-05T06:14:33.388Z,18.20
2022-08-05T06:17:21.964Z,18.20
2022-08-05T06:19:56.637Z,18.20
2022-08-05T06:22:27.318Z,18.10
2022-08-05T06:24:54.227Z,18.10
2022-08-05T06:28:12.137Z,18.00
2022-08-05T06:30:16.809Z,18.00
2022-08-05T06:32:46.862Z,18.00
2022-08-05T06:35:15.611Z,18.00
2022-08-05T06:38:04.269Z,18.10
2022-08-05T06:40:36.987Z,18.10
2022-08-05T06:43:59.266Z,18.10
2022-08-05T06:46:06.634Z,18.20
2022-08-05T06:48:47.584Z,18.20
2022-08-05T06:51:29.340Z,18.20
2022-08-05T06:54:01.941Z,18.20
2022-08-05T06:56:29.773Z,18.20
2022-08-05T06:58:56.720Z,18.20
2022-08-05T07:01:27.712Z,18.20
2022-08-05T07:04:00.042Z,18.20
2022-08-05T07:06:28.588Z,18.20
2022-08-05T07:08:55.513Z,18.20
2022-08-05T07:11:25.159Z,18.20
2022-08-05T07:14:20.607Z,18.20
2022-08-05T07:17:59.330Z,18.10
2022-08-05T07:22:34.806Z,18.00
2022-08-05T07:25:21.805Z,18.00
2022-08-05T07:27:57.085Z,17.90
2022-08-05T07:30:32.186Z,17.90
2022-08-05T07:33:00.747Z,17.80
2022-08-05T07:36:02.889Z,17.80
2022-08-05T07:41:04.531Z,17.80
2022-08-05T07:43:46.574Z,17.70
2022-08-05T07:46:24.425Z,17.80
2022-08-05T07:49:03.505Z,17.80
2022-08-05T07:51:48.583Z,17.90
2022-08-05T07:54:31.001Z,17.90
2022-08-05T07:57:16.795Z,17.80
2022-08-05T07:59:48.925Z,17.80
2022-08-05T08:02:17.621Z,17.80
2022-08-05T08:04:45.591Z,17.70
2022-08-05T08:07:12.867Z,17.70
2022-08-05T08:09:39.646Z,17.70
2022-08-05T08:12:19.932Z,17.70
2022-08-05T08:14:53.989Z,17.80
2022-08-05T08:17:21.349Z,17.80
2022-08-05T08:20:42.498Z,17.80
2022-08-05T08:22:35.205Z,17.80
2022-08-05T08:25:02.884Z,17.80
2022-08-05T08:27:40.263Z,17.80
2022-08-05T08:30:29.523Z,17.80
2022-08-05T08:33:08.183Z,17.80
2022-08-05T08:35:41.431Z,17.80
2022-08-05T08:38:35.411Z,17.80
2022-08-05T08:41:08.601Z,17.90
2022-08-05T08:45:18.732Z,17.80
2022-08-05T08:46:27.953Z,17.80
2022-08-05T08:49:07.721Z,17.80
2022-08-05T08:52:03.940Z,17.80
2022-08-05T08:54:30.448Z,17.80
2022-08-05T08:56:59.091Z,17.90
2022-08-05T08:59:33.415Z,17.90
2022-08-05T09:02:01.735Z,17.80
2022-08-05T09:04:30.723Z,17.80
2022-08-05T09:06:58.517Z,17.90
2022-08-05T09:09:34.808Z,18.00
2022-08-05T09:12:20.097Z,18.00
2022-08-05T09:14:58.821Z,18.10
2022-08-05T09:17:40.631Z,18.30
2022-08-05T09:20:12.334Z,18.30
2022-08-05T09:23:04.841Z,18.40
2022-08-05T09:26:00.857Z,18.40
2022-08-05T09:28:23.353Z,18.50
2022-08-05T09:30:55.204Z,18.60
2022-08-05T09:33:23.376Z,18.80
2022-08-05T09:36:16.393Z,18.90
2022-08-05T09:39:00.446Z,19.10
2022-08-05T09:41:33.196Z,19.40
2022-08-05T09:44:05.933Z,19.60
2022-08-05T09:46:33.853Z,19.80
2022-08-05T09:49:19.032Z,20.00
2022-08-05T09:51:50.040Z,20.20
2022-08-05T09:54:21.240Z,20.50
2022-08-05T09:56:56.181Z,20.80
2022-08-05T09:59:27.445Z,21.10
2022-08-05T10:01:58.402Z,21.40
2022-08-05T10:04:35.074Z,21.60
2022-08-05T10:07:14.167Z,21.80
2022-08-05T10:10:14.139Z,21.90
2022-08-05T10:12:49.246Z,22.00
2022-08-05T10:15:28.234Z,22.00
2022-08-05T10:18:16.682Z,22.00
2022-08-05T10:20:50.478Z,22.20
2022-08-05T10:23:34.504Z,22.40
2022-08-05T10:26:14.278Z,22.60
2022-08-05T10:28:43.030Z,22.80
2022-08-05T10:32:48.001Z,22.90
2022-08-05T10:33:58.765Z,23.00
2022-08-05T10:36:27.740Z,23.00
2022-08-05T10:38:59.958Z,23.00
2022-08-05T10:41:45.282Z,23.10
2022-08-05T10:44:17.536Z,23.20
2022-08-05T10:46:50.882Z,23.30
2022-08-05T10:49:27.411Z,23.30
2022-08-05T10:52:03.326Z,23.30
2022-08-05T10:54:47.114Z,23.50
2022-08-05T10:57:31.737Z,23.60
2022-08-05T11:00:17.862Z,23.50
2022-08-05T11:03:25.435Z,23.40
2022-08-05T11:06:04.704Z,23.50
2022-08-05T11:08:37.092Z,23.40
2022-08-05T11:11:23.925Z,23.20
2022-08-05T11:14:00.200Z,23.10
2022-08-05T11:16:33.754Z,23.20
2022-08-05T11:20:09.986Z,23.30
2022-08-05T11:22:30.093Z,23.40
2022-08-05T11:26:03.357Z,23.60
2022-08-05T11:28:17.102Z,23.90
2022-08-05T11:30:58.236Z,24.40
2022-08-05T11:33:47.756Z,24.70
2022-08-05T11:36:34.397Z,24.70
2022-08-05T11:39:09.149Z,24.60
2022-08-05T11:42:01.741Z,24.60
2022-08-05T11:44:52.740Z,24.70
2022-08-05T11:47:48.327Z,24.60
2022-08-05T11:50:14.385Z,24.90
2022-08-05T12:25:56.619Z,25.10
2022-08-05T12:28:39.129Z,23.90
2022-08-05T12:31:05.954Z,23.60
2022-08-05T12:33:38.525Z,23.40
2022-08-05T12:36:07.094Z,23.30
2022-08-05T12:38:39.831Z,23.20
2022-08-05T12:41:12.895Z,23.20
2022-08-05T12:43:50.612Z,23.20
2022-08-05T12:46:26.167Z,23.10
2022-08-05T12:49:13.681Z,23.10
2022-08-05T12:52:12.422Z,23.20
2022-08-05T12:54:35.411Z,23.10
2022-08-05T12:57:05.092Z,23.10
2022-08-05T13:02:00.256Z,23.10
2022-08-05T13:02:35.706Z,23.00
2022-08-05T13:05:05.944Z,23.00
2022-08-05T13:07:59.686Z,23.00
2022-08-05T13:10:20.566Z,23.00
2022-08-05T13:12:51.065Z,23.10
2022-08-05T13:15:41.541Z,23.20
2022-08-05T13:18:19.834Z,23.20
2022-08-05T13:20:47.640Z,23.20
2022-08-05T13:23:22.008Z,23.20
2022-08-05T13:25:51.998Z,23.20
2022-08-05T13:28:27.069Z,23.10
2022-08-05T13:30:53.925Z,23.10
2022-08-05T13:34:24.420Z,23.00
2022-08-05T13:36:09.508Z,22.90
2022-08-05T13:38:42.540Z,22.90
2022-08-05T13:41:11.174Z,22.80
2022-08-05T13:43:44.366Z,22.80
2022-08-05T13:46:16.113Z,22.80
2022-08-05T13:48:58.419Z,22.80
2022-08-05T13:51:36.389Z,22.80
2022-08-05T13:54:11.847Z,22.70
2022-08-05T13:56:45.341Z,22.80
2022-08-05T13:59:19.490Z,23.00
2022-08-05T14:01:58.313Z,23.30
2022-08-05T14:04:50.808Z,23.50
2022-08-05T14:07:56.240Z,23.90
2022-08-05T14:10:18.651Z,24.10
2022-08-05T14:12:54.927Z,24.10
2022-08-05T14:16:07.798Z,24.10
2022-08-05T14:18:15.232Z,24.00
2022-08-05T14:20:46.897Z,23.90
2022-08-05T14:23:19.079Z,23.60
2022-08-05T14:25:53.900Z,23.50
2022-08-05T14:28:26.433Z,23.40
2022-08-05T14:30:54.572Z,23.40
2022-08-05T14:33:22.812Z,23.60
2022-08-05T14:35:51.831Z,23.80
2022-08-05T14:38:32.405Z,24.00
2022-08-05T14:41:01.724Z,24.00
2022-08-05T14:43:59.036Z,24.00
2022-08-05T14:46:20.493Z,23.90
2022-08-05T14:48:52.914Z,23.90
2022-08-05T14:51:22.803Z,23.80
2022-08-05T14:54:26.138Z,23.90
2022-08-05T14:56:44.032Z,24.00
2022-08-05T14:59:13.996Z,24.20
2022-08-05T15:04:51.131Z,24.40
2022-08-05T15:08:12.521Z,24.50
2022-08-05T15:10:28.754Z,24.50
2022-08-05T15:13:03.614Z,24.60
2022-08-05T15:15:53.873Z,24.70
2022-08-05T15:18:24.179Z,24.70
2022-08-05T15:20:51.486Z,24.60
2022-08-05T15:23:18.605Z,24.60
2022-08-05T15:25:53.848Z,24.60
2022-08-05T15:28:27.241Z,24.60
2022-08-05T15:30:54.943Z,24.50
2022-08-05T15:33:56.487Z,24.50
2022-08-05T15:36:16.764Z,24.50
2022-08-05T15:38:46.436Z,24.50
2022-08-05T15:41:23.188Z,24.50
2022-08-05T15:43:52.019Z,24.50
2022-08-05T15:46:24.182Z,24.40
2022-08-05T15:48:51.827Z,24.30
2022-08-05T15:52:03.607Z,24.20
2022-08-05T15:54:15.159Z,24.10
2022-08-05T15:56:42.606Z,24.00
2022-08-05T15:59:22.007Z,23.90
2022-08-05T16:01:52.375Z,23.90
2022-08-05T16:04:20.825Z,23.90
2022-08-05T16:06:53.403Z,23.80
2022-08-05T16:09:22.127Z,23.70
2022-08-05T16:11:52.850Z,23.70
2022-08-05T16:14:20.570Z,23.50
2022-08-05T16:16:49.515Z,23.50
2022-08-05T16:19:19.207Z,23.50
2022-08-05T16:22:03.659Z,23.50
2022-08-05T16:24:39.738Z,23.40
2022-08-05T16:27:08.819Z,23.20
2022-08-05T16:29:37.649Z,23.00
2022-08-05T16:32:09.951Z,22.90
2022-08-05T16:34:39.343Z,22.90
2022-08-05T16:38:01.885Z,22.80
2022-08-05T16:40:06.475Z,22.70
2022-08-05T16:42:35.247Z,22.60
2022-08-05T16:46:02.765Z,22.70
2022-08-05T16:47:54.364Z,22.60
2022-08-05T16:50:24.173Z,22.60
2022-08-05T16:52:51.010Z,22.60
2022-08-05T16:55:19.789Z,22.50
2022-08-05T16:58:00.438Z,22.50
2022-08-05T17:00:34.502Z,22.50
2022-08-05T17:03:15.204Z,22.40
2022-08-05T17:05:51.831Z,22.40
2022-08-05T17:08:36.503Z,22.30
2022-08-05T17:11:12.862Z,22.30
2022-08-05T17:13:46.717Z,22.30
2022-08-05T17:16:29.825Z,22.20
2022-08-05T17:18:59.470Z,22.20
2022-08-05T17:21:26.252Z,22.10
2022-08-05T17:24:28.266Z,22.00
2022-08-05T17:26:53.672Z,21.90
2022-08-05T17:29:33.647Z,21.90
2022-08-05T17:32:11.498Z,21.80
2022-08-05T17:34:43.951Z,21.60
2022-08-05T17:37:27.268Z,21.50
2022-08-05T17:40:00.039Z,21.50
2022-08-05T17:42:32.014Z,21.40
2022-08-05T17:44:59.498Z,21.30
2022-08-05T17:47:26.757Z,21.20
2022-08-05T17:50:03.481Z,21.10
2022-08-05T17:52:31.901Z,21.10
2022-08-05T17:54:58.914Z,21.00
2022-08-05T17:57:25.624Z,20.90
2022-08-05T18:00:03.706Z,20.90
2022-08-05T18:02:33.343Z,20.80
2022-08-05T18:05:06.924Z,20.70
2022-08-05T18:07:41.737Z,20.60
2022-08-05T18:10:20.570Z,20.50
2022-08-05T18:12:48.723Z,20.50
2022-08-05T18:15:15.496Z,20.50
2022-08-05T18:18:00.239Z,20.50
2022-08-05T18:20:31.839Z,20.40
2022-08-05T18:23:00.606Z,20.40
2022-08-05T18:25:38.892Z,20.20
2022-08-05T18:28:06.864Z,20.20
2022-08-05T18:30:34.084Z,20.10
2022-08-05T18:33:01.667Z,20.00
2022-08-05T18:35:59.681Z,20.00
2022-08-05T18:38:19.342Z,19.90
2022-08-05T18:41:56.033Z,19.80
2022-08-05T18:43:42.662Z,19.70
2022-08-05T18:46:10.265Z,19.60
2022-08-05T18:48:41.477Z,19.50
2022-08-05T18:52:04.279Z,19.40
2022-08-05T18:54:14.469Z,19.30
2022-08-05T18:56:41.849Z,19.20
2022-08-05T18:59:44.254Z,19.10
2022-08-05T19:02:05.023Z,19.10
2022-08-05T19:05:01.261Z,19.00
2022-08-05T19:07:46.074Z,19.00
2022-08-05T19:10:17.378Z,19.00
2022-08-05T19:12:46.154Z,18.80
2022-08-05T19:15:58.081Z,18.70
2022-08-05T19:18:09.531Z,18.70
2022-08-05T19:20:41.360Z,18.60
2022-08-05T19:24:03.523Z,18.50
2022-08-05T19:26:01.676Z,18.50
2022-08-05T19:28:30.883Z,18.50
2022-08-05T19:30:57.985Z,18.60
2022-08-05T19:33:35.577Z,18.70
2022-08-05T19:36:06.169Z,18.90
2022-08-05T19:38:35.606Z,19.00
2022-08-05T19:41:07.429Z,19.10
2022-08-05T19:44:06.629Z,19.10
2022-08-05T19:46:29.361Z,19.10
2022-08-05T19:49:03.181Z,19.20
2022-08-05T19:52:04.588Z,19.30
2022-08-05T19:54:25.399Z,19.20
2022-08-05T19:57:02.363Z,19.20
2022-08-05T20:00:00.590Z,19.20
2022-08-05T20:02:20.368Z,19.20
2022-08-05T20:04:48.352Z,19.10
2022-08-05T20:07:15.522Z,19.00
2022-08-05T20:09:54.068Z,19.00
2022-08-05T20:12:24.571Z,19.00
2022-08-05T20:14:53.022Z,19.00
2022-08-05T20:17:23.565Z,19.00
2022-08-05T20:19:51.060Z,19.10
2022-08-05T20:22:25.084Z,19.10
2022-08-05T20:24:53.848Z,19.10
2022-08-05T20:27:21.142Z,19.00
2022-08-05T20:29:58.557Z,18.90
2022-08-05T20:32:27.312Z,18.90
2022-08-05T20:34:54.901Z,18.80
2022-08-05T20:38:06.669Z,18.80
2022-08-05T20:40:09.883Z,18.70
2022-08-05T20:42:36.738Z,18.70
2022-08-05T20:45:04.622Z,18.70
2022-08-05T20:47:33.250Z,18.50
2022-08-05T20:50:02.354Z,18.60
2022-08-05T20:52:32.468Z,18.50
2022-08-05T20:55:55.269Z,18.40
2022-08-05T20:57:46.292Z,18.10
2022-08-05T21:00:41.085Z,17.80
2022-08-05T21:03:08.109Z,17.60
2022-08-05T21:05:47.581Z,17.40
2022-08-05T21:08:21.204Z,17.30
2022-08-05T21:10:55.101Z,17.10
2022-08-05T21:52:15.973Z,15.70
2022-08-05T21:54:30.853Z,15.60
2022-08-05T21:57:29.270Z,15.60
2022-08-05T22:00:02.015Z,15.50
2022-08-05T22:02:39.811Z,15.40
2022-08-05T22:05:09.242Z,15.40
2022-08-05T22:07:54.199Z,15.30
2022-08-05T22:10:27.203Z,15.20
2022-08-05T22:12:58.988Z,15.10
2022-08-05T22:15:56.503Z,15.00
2022-08-05T22:18:24.880Z,14.90
2022-08-05T22:20:52.765Z,14.80
2022-08-05T22:24:02.056Z,14.70
2022-08-05T22:26:43.333Z,14.60
2022-08-05T22:29:17.489Z,14.60
2022-08-05T22:31:45.812Z,14.60
2022-08-05T22:34:28.222Z,14.50
2022-08-05T22:36:58.248Z,14.50
2022-08-05T22:39:30.999Z,14.40
2022-08-05T22:42:12.166Z,14.50
2022-08-05T22:44:40.333Z,14.40
2022-08-05T22:47:07.089Z,14.40
2022-08-05T22:50:19.056Z,14.40
2022-08-05T22:52:30.612Z,14.40
2022-08-05T22:55:04.350Z,14.50
2022-08-05T22:57:45.300Z,14.40
2022-08-05T23:00:12.762Z,14.30
2022-08-05T23:02:46.611Z,14.30
2022-08-05T23:05:14.724Z,14.30
2022-08-05T23:07:48.337Z,14.30
2022-08-05T23:10:19.609Z,14.40
2022-08-05T23:12:47.543Z,14.30
2022-08-05T23:15:18.107Z,14.20
2022-08-05T23:25:52.100Z,14.20
2022-08-05T23:30:40.500Z,13.90
2022-08-05T23:33:22.077Z,13.90
2022-08-05T23:35:56.048Z,13.90
2022-08-05T23:38:24.089Z,13.90
2022-08-05T23:40:52.684Z,13.90
2022-08-05T23:43:25.685Z,13.90
2022-08-05T23:46:05.253Z,13.90
2022-08-05T23:49:01.228Z,13.90
2022-08-05T23:51:53.674Z,13.90
2022-08-05T23:54:29.904Z,13.80
2022-08-05T23:57:03.286Z,13.80
